Time;durP1;ratioP1;P1;durP2;ratioP2;P2;SDS_P1;SDS_P2;PMS_P1;PMS_P2;Temp;Humidity;BMP_temperature;BMP_pressure;BME280_temperature;BME280_humidity;BME280_pressure;Samples;Min_cycle;Max_cycle;Signal;HPM_P1;HPM_P2
2022/01/21 00:02:03;;;;;;;6.65;2.50;;;0.40;99.90;;;;;;5112093;28;20046;-64
2022/01/21 00:04:30;;;;;;;6.40;2.72;;;0.30;99.90;;;;;;5112268;28;20466;-64
2022/01/21 00:06:57;;;;;;;3.17;1.63;;;0.20;99.90;;;;;;5111516;28;20051;-64
2022/01/21 00:09:24;;;;;;;3.10;1.48;;;0.20;99.90;;;;;;5112091;28;20047;-64
2022/01/21 00:11:51;;;;;;;4.45;1.35;;;0.40;99.90;;;;;;5111913;28;20039;-64
2022/01/21 00:14:17;;;;;;;5.35;1.67;;;0.70;99.90;;;;;;5093703;28;20048;-64
2022/01/21 00:16:44;;;;;;;3.80;1.70;;;0.70;99.90;;;;;;5111547;28;20040;-64
2022/01/21 00:19:14;;;;;;;3.55;1.35;;;0.70;99.90;;;;;;5112160;28;20649;-64
2022/01/21 00:30:20;;;;;;;5.07;2.63;;;0.60;99.90;;;;;;5111840;28;20040;-64
2022/01/21 00:32:48;;;;;;;7.13;2.63;;;0.50;99.90;;;;;;5111765;28;20043;-65
2022/01/21 00:35:17;;;;;;;4.30;1.77;;;0.40;99.90;;;;;;5111631;28;20403;-64
2022/01/21 00:37:45;;;;;;;3.38;1.48;;;0.40;99.90;;;;;;5093501;28;20071;-64
2022/01/21 00:40:17;;;;;;;3.15;1.35;;;0.70;99.90;;;;;;5111779;28;20063;-65
2022/01/21 00:43:30;;;;;;;4.47;1.88;;;0.60;99.90;;;;;;5112883;28;20078;-65
2022/01/21 00:45:34;;;;;;;2.15;1.25;;;0.60;99.90;;;;;;5107137;28;20056;-65
2022/01/21 00:48:01;;;;;;;3.63;1.48;;;0.60;99.90;;;;;;5115626;28;20059;-65
2022/01/21 00:50:30;;;;;;;2.78;1.23;;;0.60;99.90;;;;;;5114540;28;20437;-65
2022/01/21 00:52:56;;;;;;;2.72;1.08;;;0.80;99.90;;;;;;5115427;28;20044;-65
2022/01/21 00:55:24;;;;;;;4.80;1.40;;;0.80;99.90;;;;;;5115064;28;20046;-65
2022/01/21 00:57:50;;;;;;;5.13;1.60;;;0.80;99.90;;;;;;5115554;28;20043;-65
2022/01/21 01:00:18;;;;;;;4.50;1.10;;;0.90;99.90;;;;;;5097247;28;20045;-65
2022/01/21 01:02:44;;;;;;;6.97;1.15;;;0.90;99.90;;;;;;5115370;28;20105;-64
2022/01/21 01:05:12;;;;;;;2.78;1.02;;;0.90;99.90;;;;;;5115093;28;20051;-64
2022/01/21 01:07:39;;;;;;;5.72;1.20;;;0.90;99.90;;;;;;5115208;28;20043;-64
2022/01/21 01:10:12;;;;;;;4.05;1.30;;;0.90;99.90;;;;;;5115153;28;20054;-65
2022/01/21 01:20:43;;;;;;;3.88;1.33;;;0.70;99.90;;;;;;5096788;28;20042;-65
2022/01/21 01:23:39;;;;;;;;;;;0.60;99.90;;;;;;5097173;28;20039;-65
2022/01/21 01:28:52;;;;;;;2.88;1.20;;;0.70;99.90;;;;;;5114930;28;20039;-65
2022/01/21 01:31:18;;;;;;;3.53;1.30;;;0.70;99.90;;;;;;5096524;28;20116;-65
2022/01/21 01:33:46;;;;;;;2.25;1.00;;;0.70;99.90;;;;;;5113433;28;20044;-65
2022/01/21 01:36:13;;;;;;;;;;;0.70;99.90;;;;;;5114718;28;20424;-64
2022/01/21 01:39:01;;;;;;;5.50;1.10;;;0.60;99.90;;;;;;5114651;28;19923;-65
2022/01/21 01:41:38;;;;;;;5.03;1.23;;;0.60;99.90;;;;;;5114655;28;20040;-65
2022/01/21 01:49:37;;;;;;;2.30;0.93;;;0.60;99.90;;;;;;5114329;28;20575;-65
2022/01/21 01:52:18;;;;;;;4.63;1.45;;;0.60;99.90;;;;;;5114642;28;20048;-65
2022/01/21 01:54:49;;;;;;;4.38;1.30;;;0.60;99.90;;;;;;5113606;28;20042;-65
2022/01/21 01:57:16;;;;;;;5.20;1.33;;;0.60;99.90;;;;;;5113837;28;20044;-65
2022/01/21 01:59:44;;;;;;;4.18;1.10;;;0.60;99.90;;;;;;5113014;28;20036;-65
2022/01/21 02:02:13;;;;;;;;;;;0.60;99.90;;;;;;5114667;28;20471;-65
2022/01/21 02:04:42;;;;;;;6.72;1.45;;;0.60;99.90;;;;;;5095863;28;19919;-65
2022/01/21 02:07:10;;;;;;;2.22;1.20;;;0.60;99.90;;;;;;5113692;28;20043;-65
2022/01/21 02:09:38;;;;;;;6.25;1.02;;;0.60;99.90;;;;;;5112972;28;20044;-65
2022/01/21 02:12:06;;;;;;;3.92;1.23;;;0.60;99.90;;;;;;5114076;28;20051;-65
2022/01/21 02:14:36;;;;;;;5.43;1.30;;;0.60;99.90;;;;;;5113988;28;20050;-65
2022/01/21 02:17:17;;;;;;;4.32;1.52;;;0.60;99.90;;;;;;5095250;28;20039;-65
2022/01/21 02:22:35;;;;;;;3.20;1.33;;;0.60;99.90;;;;;;5095807;28;20492;-64
2022/01/21 02:25:18;;;;;;;7.93;1.58;;;0.60;99.90;;;;;;5112377;28;20422;-65
2022/01/21 02:27:57;;;;;;;8.15;1.65;;;0.60;99.90;;;;;;5095440;28;20044;-65
2022/01/21 02:30:25;;;;;;;7.68;1.30;;;0.60;99.90;;;;;;5095537;28;20096;-65
2022/01/21 02:32:58;;;;;;;3.20;1.50;;;0.60;99.90;;;;;;5095392;28;20085;-65
2022/01/21 02:35:26;;;;;;;4.20;1.15;;;0.70;99.90;;;;;;5113309;28;20040;-65
2022/01/21 02:37:53;;;;;;;3.60;1.40;;;0.70;99.90;;;;;;5095237;28;20047;-65
2022/01/21 02:40:20;;;;;;;;;;;0.70;99.90;;;;;;5095813;28;20047;-65
2022/01/21 02:42:47;;;;;;;6.03;1.77;;;0.70;99.90;;;;;;5113484;28;19972;-65
2022/01/21 02:45:15;;;;;;;5.15;1.48;;;0.70;99.90;;;;;;5094680;28;20043;-65
2022/01/21 02:47:44;;;;;;;4.00;1.08;;;0.70;99.90;;;;;;5095075;28;20503;-65
2022/01/21 02:50:12;;;;;;;2.55;1.30;;;0.70;99.90;;;;;;5094927;28;20078;-65
2022/01/21 02:52:54;;;;;;;7.07;1.20;;;0.70;99.90;;;;;;5094940;28;20081;-65
2022/01/21 02:55:23;;;;;;;3.53;1.63;;;0.70;99.90;;;;;;5094672;28;20466;-65
2022/01/21 02:57:50;;;;;;;3.58;1.05;;;0.70;99.90;;;;;;5106151;22;20048;-63
2022/01/21 03:00:17;;;;;;;8.85;1.80;;;0.70;99.90;;;;;;5074068;28;20048;-63
2022/01/21 03:02:45;;;;;;;4.78;1.90;;;0.70;99.90;;;;;;5074502;28;20093;-63
2022/01/21 03:05:15;;;;;;;7.47;1.30;;;0.70;99.90;;;;;;5074013;28;20068;-63
2022/01/21 03:07:43;;;;;;;4.05;1.40;;;0.70;99.90;;;;;;5074324;28;20135;-63
2022/01/21 03:10:10;;;;;;;2.60;1.20;;;0.70;99.90;;;;;;5074672;28;20051;-63
2022/01/21 03:12:37;;;;;;;2.70;1.02;;;0.60;99.90;;;;;;5074302;28;20562;-63
2022/01/21 03:15:06;;;;;;;2.30;1.00;;;0.60;99.90;;;;;;5074080;28;20044;-62
2022/01/21 03:17:34;;;;;;;5.88;1.65;;;0.60;99.90;;;;;;5092197;28;20036;-63
2022/01/21 03:20:03;;;;;;;4.60;1.10;;;0.60;99.90;;;;;;5074102;28;20071;-62
2022/01/21 03:22:31;;;;;;;6.28;1.15;;;0.60;99.90;;;;;;5092315;28;20048;-63
2022/01/21 03:24:58;;;;;;;5.43;1.23;;;0.60;99.90;;;;;;5092532;28;20674;-63
2022/01/21 03:27:25;;;;;;;7.03;1.80;;;0.60;99.90;;;;;;5073496;28;20044;-63
2022/01/21 03:29:52;;;;;;;5.03;1.40;;;0.60;99.90;;;;;;5074108;28;20131;-63
2022/01/21 03:32:19;;;;;;;3.13;1.45;;;0.60;99.90;;;;;;5073927;28;20040;-62
2022/01/21 03:34:45;;;;;;;4.20;1.02;;;0.50;99.90;;;;;;5074131;28;20047;-62
2022/01/21 03:37:12;;;;;;;5.47;1.20;;;0.40;99.90;;;;;;5073479;28;20060;-62
2022/01/21 03:39:39;;;;;;;7.72;1.30;;;0.40;99.90;;;;;;5074058;28;20072;-63
2022/01/21 03:42:06;;;;;;;1.90;1.02;;;0.40;99.90;;;;;;5073825;28;20055;-63
2022/01/21 03:44:33;;;;;;;3.83;1.02;;;0.40;99.90;;;;;;5073904;28;20447;-62
2022/01/21 03:47:00;;;;;;;4.00;0.77;;;0.40;99.90;;;;;;5073308;28;20522;-63
2022/01/21 03:49:35;;;;;;;3.65;1.13;;;0.30;99.90;;;;;;5073850;28;20075;-63
2022/01/21 03:52:04;;;;;;;3.70;1.27;;;0.30;99.90;;;;;;5073709;28;20040;-63
2022/01/21 03:54:32;;;;;;;7.43;1.17;;;0.30;99.90;;;;;;5073883;28;20044;-63
2022/01/21 03:56:59;;;;;;;7.60;1.20;;;0.30;99.90;;;;;;5073208;28;20051;-63
2022/01/21 03:59:26;;;;;;;7.53;1.15;;;0.20;99.90;;;;;;5073716;28;20040;-63
2022/01/21 04:01:56;;;;;;;5.50;1.50;;;0.30;99.90;;;;;;5073742;28;20046;-63
2022/01/21 04:04:23;;;;;;;3.22;1.17;;;0.30;99.90;;;;;;5073638;28;20551;-63
2022/01/21 04:06:50;;;;;;;8.15;2.03;;;0.30;99.90;;;;;;5073124;28;20043;-63
2022/01/21 04:09:18;;;;;;;5.97;1.65;;;0.30;99.90;;;;;;5073469;28;20048;-63
2022/01/21 04:11:45;;;;;;;2.78;1.50;;;0.30;99.90;;;;;;5073590;28;20416;-63
2022/01/21 04:14:12;;;;;;;12.52;1.95;;;0.30;99.90;;;;;;5073630;28;20040;-62
2022/01/21 04:16:39;;;;;;;7.03;1.75;;;0.30;99.90;;;;;;5073083;28;20040;-63
2022/01/21 04:19:06;;;;;;;2.78;1.63;;;0.30;99.90;;;;;;5077152;28;20411;-62
2022/01/21 04:21:33;;;;;;;;;;;0.30;99.90;;;;;;5077985;28;20450;-63
2022/01/21 04:24:02;;;;;;;4.93;2.25;;;0.30;99.90;;;;;;5077613;28;19926;-63
2022/01/21 04:26:35;;;;;;;5.40;1.52;;;0.30;99.90;;;;;;5077174;28;20074;-62
2022/01/21 04:29:06;;;;;;;5.72;1.73;;;0.30;99.90;;;;;;5077728;28;20052;-63
2022/01/21 04:31:43;;;;;;;7.00;1.83;;;0.20;99.90;;;;;;5077414;28;20468;-63
2022/01/21 04:34:11;;;;;;;8.27;1.80;;;0.10;99.90;;;;;;5077430;28;20059;-63
2022/01/21 04:36:38;;;;;;;7.47;1.83;;;0.10;99.90;;;;;;5095044;28;20550;-63
2022/01/21 04:39:07;;;;;;;3.95;1.77;;;0.20;99.90;;;;;;5077270;28;20048;-63
2022/01/21 04:49:32;;;;;;;5.07;2.00;;;0.10;99.90;;;;;;5077303;28;20040;-63
2022/01/21 04:52:02;;;;;;;6.38;1.65;;;0.10;99.90;;;;;;5077048;28;20043;-63
2022/01/21 04:54:41;;;;;;;6.10;1.70;;;0.10;99.90;;;;;;5076964;28;20058;-63
2022/01/21 04:57:08;;;;;;;6.65;2.08;;;0.10;99.90;;;;;;5076311;28;20044;-63
2022/01/21 04:59:37;;;;;;;5.57;1.90;;;0.10;99.90;;;;;;5076905;28;20435;-63
2022/01/21 05:02:05;;;;;;;3.72;1.55;;;0.20;99.90;;;;;;5076824;28;20043;-63
2022/01/21 05:04:33;;;;;;;5.43;1.83;;;0.20;99.90;;;;;;5076707;28;20577;-63
2022/01/21 05:07:02;;;;;;;4.30;1.35;;;0.20;99.90;;;;;;5076347;28;20048;-62
2022/01/21 05:09:32;;;;;;;7.30;1.58;;;0.30;99.90;;;;;;5076875;28;20082;-63
2022/01/21 05:12:01;;;;;;;7.93;1.50;;;0.30;99.90;;;;;;5076546;28;20076;-63
2022/01/21 05:17:11;;;;;;;7.40;2.45;;;0.40;99.90;;;;;;5076180;28;20051;-63
2022/01/21 05:19:38;;;;;;;4.15;2.08;;;0.40;99.90;;;;;;5076514;28;20051;-63
2022/01/21 05:22:05;;;;;;;3.95;2.05;;;0.40;99.90;;;;;;5094519;28;20071;-64
2022/01/21 05:24:38;;;;;;;5.47;1.35;;;0.30;99.90;;;;;;5076553;28;20443;-63
2022/01/21 05:27:06;;;;;;;3.83;1.17;;;0.20;99.90;;;;;;5075985;28;20048;-63
2022/01/21 05:29:41;;;;;;;3.67;1.15;;;0.10;99.90;;;;;;5074940;28;20063;-63
2022/01/21 05:32:31;;;;;;;8.35;1.60;;;0.10;99.90;;;;;;5088484;28;20097;-62
2022/01/21 05:34:58;;;;;;;5.60;1.15;;;0.10;99.90;;;;;;5094640;28;20048;-63
2022/01/21 05:37:37;;;;;;;6.93;1.17;;;0.10;99.90;;;;;;5076050;28;20040;-63
2022/01/21 05:40:16;;;;;;;4.55;1.50;;;0.00;99.90;;;;;;5076157;28;20048;-63
2022/01/21 05:43:12;;;;;;;8.93;2.40;;;-0.10;99.90;;;;;;5021738;28;20536;-63
2022/01/21 05:46:34;;;;;;;5.32;1.73;;;-0.10;99.90;;;;;;5011558;28;20172;-63
2022/01/21 05:49:28;;;;;;;13.00;2.38;;;-0.30;99.90;;;;;;5092810;28;20101;-62
2022/01/21 05:52:16;;;;;;;6.68;2.25;;;-0.20;99.90;;;;;;5094130;28;20048;-62
2022/01/21 05:54:59;;;;;;;5.63;1.90;;;-0.20;99.90;;;;;;5075866;28;20512;-63
2022/01/21 05:57:51;;;;;;;20.20;2.67;;;-0.10;99.90;;;;;;5075828;28;20117;-62
2022/01/21 06:00:18;;;;;;;9.73;2.05;;;-0.10;99.90;;;;;;5093904;28;20408;-63
2022/01/21 06:02:48;;;;;;;7.20;2.00;;;-0.10;99.90;;;;;;5094312;28;20050;-62
2022/01/21 06:05:15;;;;;;;11.23;2.33;;;0.00;99.90;;;;;;5093233;28;20055;-62
2022/01/21 06:07:42;;;;;;;;;;;0.00;99.90;;;;;;5094006;28;20348;-62
2022/01/21 06:10:10;;;;;;;5.88;1.30;;;0.00;99.90;;;;;;5075157;28;19939;-62
2022/01/21 06:12:36;;;;;;;12.07;2.08;;;-0.20;99.90;;;;;;5093375;28;20432;-63
2022/01/21 06:15:04;;;;;;;9.48;2.10;;;0.00;99.90;;;;;;5093628;28;20106;-62
2022/01/21 06:17:31;;;;;;;6.72;1.98;;;0.00;99.90;;;;;;5075103;28;20048;-62
2022/01/21 06:19:58;;;;;;;7.60;1.90;;;0.00;99.90;;;;;;5093563;28;20098;-62
2022/01/21 06:22:24;;;;;;;13.98;2.30;;;0.00;99.90;;;;;;5093538;28;20046;-63
2022/01/21 06:24:53;;;;;;;8.48;2.83;;;0.00;99.90;;;;;;5093429;28;20105;-62
2022/01/21 06:27:26;;;;;;;9.02;3.13;;;-0.10;99.90;;;;;;5092758;28;20036;-63
2022/01/21 06:29:54;;;;;;;4.72;2.05;;;-0.10;99.90;;;;;;5093319;28;20040;-62
2022/01/21 06:32:21;;;;;;;9.10;2.80;;;-0.20;99.90;;;;;;5093280;28;20048;-62
2022/01/21 06:34:47;;;;;;;13.20;4.63;;;-0.20;99.90;;;;;;5093146;28;20040;-63
2022/01/21 06:37:14;;;;;;;19.00;5.40;;;-0.10;99.90;;;;;;5092689;28;20063;-63
2022/01/21 06:39:41;;;;;;;28.80;10.40;;;-0.10;99.90;;;;;;5093076;28;20102;-62
2022/01/21 06:42:08;;;;;;;23.23;6.78;;;-0.10;99.90;;;;;;5092896;28;20405;-63
2022/01/21 06:44:36;;;;;;;15.07;3.78;;;-0.10;99.90;;;;;;5093044;28;20040;-62
2022/01/21 06:47:03;;;;;;;17.70;5.47;;;-0.20;99.90;;;;;;5092704;28;20040;-63
2022/01/21 06:49:30;;;;;;;9.73;2.60;;;-0.20;99.90;;;;;;5092793;28;20036;-62
2022/01/21 06:51:57;;;;;;;10.73;2.95;;;-0.20;99.90;;;;;;5083436;28;20048;-62
2022/01/21 06:54:24;;;;;;;9.30;2.72;;;-0.20;99.90;;;;;;5072435;28;20503;-62
2022/01/21 06:56:51;;;;;;;10.98;2.75;;;-0.20;99.90;;;;;;5072181;28;20040;-62
2022/01/21 06:59:18;;;;;;;12.65;2.50;;;-0.10;99.90;;;;;;5072584;28;20374;-62
2022/01/21 07:01:46;;;;;;;8.63;2.22;;;-0.10;99.90;;;;;;5072515;28;20032;-62
2022/01/21 07:04:13;;;;;;;8.45;1.85;;;-0.10;99.90;;;;;;5072329;28;20040;-62
2022/01/21 07:06:40;;;;;;;5.97;2.70;;;-0.10;99.90;;;;;;5071870;28;20054;-62
2022/01/21 07:09:07;;;;;;;6.47;2.00;;;-0.10;99.90;;;;;;5072307;28;20052;-62
2022/01/21 07:11:34;;;;;;;5.85;2.10;;;0.00;99.90;;;;;;5072233;28;20040;-62
2022/01/21 07:14:01;;;;;;;15.23;2.97;;;0.00;99.90;;;;;;5072220;28;20455;-62
2022/01/21 07:16:27;;;;;;;3.72;1.92;;;0.10;99.90;;;;;;5072009;28;20037;-63
2022/01/21 07:18:54;;;;;;;11.27;3.90;;;0.10;99.90;;;;;;5072115;28;20633;-62
2022/01/21 07:21:21;;;;;;;17.55;5.75;;;0.10;99.90;;;;;;5072093;28;20508;-62
2022/01/21 07:23:48;;;;;;;14.60;6.22;;;0.10;99.90;;;;;;5072131;28;20542;-63
2022/01/21 07:26:15;;;;;;;23.50;6.05;;;0.00;99.90;;;;;;5071552;28;20492;-63
2022/01/21 07:28:42;;;;;;;14.80;5.28;;;0.00;99.90;;;;;;5071960;28;20122;-62
2022/01/21 07:31:09;;;;;;;16.13;5.20;;;-0.10;99.90;;;;;;5071975;28;20052;-62
2022/01/21 07:33:37;;;;;;;20.88;5.82;;;-0.20;99.90;;;;;;5071886;28;20052;-62
2022/01/21 07:36:06;;;;;;;17.45;5.90;;;-0.20;99.90;;;;;;5071514;28;20492;-62
2022/01/21 07:38:33;;;;;;;16.52;4.85;;;-0.10;99.90;;;;;;5071829;28;20056;-63
2022/01/21 07:41:00;;;;;;;20.20;7.10;;;-0.10;99.90;;;;;;5072094;28;20079;-62
2022/01/21 07:43:27;;;;;;;11.73;4.00;;;-0.10;99.90;;;;;;5071845;28;20079;-62
2022/01/21 07:45:53;;;;;;;14.43;4.40;;;-0.10;99.90;;;;;;5071264;28;20420;-62
2022/01/21 07:48:20;;;;;;;16.58;6.72;;;-0.10;99.90;;;;;;5071720;28;20074;-62
2022/01/21 07:50:47;;;;;;;12.45;4.38;;;-0.20;99.90;;;;;;5071724;28;20040;-62
2022/01/21 07:53:14;;;;;;;13.50;4.63;;;-0.30;99.90;;;;;;5070885;28;20045;-62
2022/01/21 07:55:43;;;;;;;17.20;5.45;;;-0.30;99.90;;;;;;5071343;28;20455;-62
2022/01/21 07:58:11;;;;;;;15.10;4.57;;;-0.40;99.90;;;;;;5071358;28;20051;-62
2022/01/21 08:00:38;;;;;;;13.00;5.72;;;-0.40;99.90;;;;;;5071653;28;20051;-62
2022/01/21 08:03:05;;;;;;;9.90;3.53;;;-0.30;99.90;;;;;;5071607;28;20113;-62
2022/01/21 08:05:34;;;;;;;10.52;3.58;;;-0.30;99.90;;;;;;5071268;28;20511;-62
2022/01/21 08:08:02;;;;;;;13.70;3.08;;;-0.30;99.90;;;;;;5071448;28;20037;-62
2022/01/21 08:10:31;;;;;;;14.23;2.42;;;-0.30;99.90;;;;;;5071599;28;20493;-62
2022/01/21 08:12:59;;;;;;;6.70;2.30;;;-0.30;99.90;;;;;;5071330;28;20032;-62
2022/01/21 08:15:26;;;;;;;4.63;1.80;;;-0.20;99.90;;;;;;5071034;28;20106;-62
2022/01/21 08:17:53;;;;;;;;;;;-0.20;99.90;;;;;;5071796;28;20432;-62
2022/01/21 08:20:20;;;;;;;6.63;1.38;;;-0.30;99.90;;;;;;5071409;28;19920;-62
2022/01/21 08:22:47;;;;;;;7.95;1.25;;;-0.30;99.90;;;;;;5071423;28;20044;-62
2022/01/21 08:25:14;;;;;;;7.00;1.33;;;-0.40;99.90;;;;;;5070954;28;20044;-62
2022/01/21 08:27:41;;;;;;;10.57;1.77;;;-0.50;99.90;;;;;;5071293;28;20050;-61
2022/01/21 08:30:09;;;;;;;6.32;1.45;;;-0.50;99.90;;;;;;5071425;28;20520;-62
2022/01/21 08:32:37;;;;;;;5.13;1.60;;;-0.60;99.90;;;;;;5053791;28;20049;-62
2022/01/21 08:35:07;;;;;;;8.20;1.38;;;-0.70;99.90;;;;;;5071074;28;20149;-62
2022/01/21 08:37:34;;;;;;;7.95;2.00;;;-0.80;99.90;;;;;;5070899;28;20045;-62
2022/01/21 08:40:02;;;;;;;8.52;1.50;;;-0.80;99.90;;;;;;5071349;28;20044;-62
2022/01/21 08:42:29;;;;;;;9.52;1.95;;;-0.90;99.90;;;;;;5071158;28;20047;-62
2022/01/21 08:44:56;;;;;;;6.00;1.95;;;-1.00;99.90;;;;;;5071229;28;20086;-62
2022/01/21 08:47:23;;;;;;;4.78;1.50;;;-1.00;99.90;;;;;;5070676;28;20082;-62
2022/01/21 08:49:51;;;;;;;9.10;2.05;;;-0.90;99.90;;;;;;5071158;28;20051;-62
2022/01/21 08:52:21;;;;;;;12.57;1.85;;;-0.80;99.90;;;;;;5071102;28;20460;-62
2022/01/21 08:54:49;;;;;;;6.80;2.33;;;-0.80;99.90;;;;;;5070850;28;20497;-62
2022/01/21 08:57:17;;;;;;;7.25;1.95;;;-0.80;99.90;;;;;;5091707;22;20085;-64
2022/01/21 08:59:44;;;;;;;8.23;1.70;;;-0.80;99.90;;;;;;5090964;28;20036;-64
2022/01/21 09:02:11;;;;;;;8.60;2.08;;;-0.80;99.90;;;;;;5090985;28;20059;-64
2022/01/21 09:04:38;;;;;;;14.68;1.77;;;-0.60;99.90;;;;;;5093685;28;20079;-65
2022/01/21 09:07:05;;;;;;;15.52;2.50;;;-0.50;99.90;;;;;;5094295;28;20382;-64
2022/01/21 09:09:32;;;;;;;10.80;2.47;;;-0.30;99.90;;;;;;5094803;28;20033;-65
2022/01/21 09:12:00;;;;;;;11.13;2.92;;;-0.20;99.90;;;;;;5094876;28;20036;-65
2022/01/21 09:14:28;;;;;;;7.45;2.13;;;0.00;99.90;;;;;;5094601;28;20040;-65
2022/01/21 09:16:57;;;;;;;14.15;3.67;;;0.10;99.90;;;;;;5094363;28;20389;-65
2022/01/21 09:19:24;;;;;;;10.32;2.15;;;0.10;99.90;;;;;;5094558;28;20043;-64
2022/01/21 09:21:52;;;;;;;12.52;2.10;;;0.00;99.90;;;;;;5094579;28;20485;-64
2022/01/21 09:24:19;;;;;;;12.50;2.08;;;0.00;99.90;;;;;;5094571;28;20176;-64
2022/01/21 09:26:46;;;;;;;;;;;0.00;99.90;;;;;;5094634;28;20048;-64
2022/01/21 09:29:14;;;;;;;7.57;1.77;;;0.10;99.90;;;;;;5094579;28;20376;-64
2022/01/21 09:31:41;;;;;;;14.45;2.72;;;0.00;99.90;;;;;;5094572;28;20407;-64
2022/01/21 09:34:24;;;;;;;11.95;1.95;;;0.10;99.90;;;;;;5094301;28;20040;-64
2022/01/21 09:36:53;;;;;;;17.20;2.22;;;0.20;99.90;;;;;;5093895;28;20101;-65
2022/01/21 09:39:21;;;;;;;19.10;2.10;;;0.40;99.90;;;;;;5094225;28;20050;-65
2022/01/21 09:41:49;;;;;;;6.75;2.00;;;0.60;99.90;;;;;;5094437;28;20089;-65
2022/01/21 09:44:21;;;;;;;12.60;2.55;;;0.60;99.90;;;;;;5094369;28;20044;-65
2022/01/21 09:46:50;;;;;;;10.77;2.50;;;0.80;99.90;;;;;;5093645;28;20051;-64
2022/01/21 09:52:03;;;;;;;11.93;2.00;;;1.00;99.90;;;;;;5094068;28;20060;-65
2022/01/21 09:54:36;;;;;;;13.88;2.08;;;1.10;99.90;;;;;;5093982;28;20040;-65
2022/01/21 09:57:06;;;;;;;7.28;1.67;;;1.20;99.90;;;;;;5093399;28;20040;-65
2022/01/21 09:59:35;;;;;;;9.23;2.42;;;1.20;99.90;;;;;;5093873;28;20064;-65
2022/01/21 10:02:05;;;;;;;10.07;1.35;;;1.20;99.90;;;;;;5093825;28;20040;-65
2022/01/21 10:04:36;;;;;;;11.43;1.92;;;1.20;99.90;;;;;;5093838;28;20437;-65
2022/01/21 10:07:05;;;;;;;7.47;2.28;;;1.30;99.90;;;;;;5093380;28;20589;-65
2022/01/21 10:09:32;;;;;;;12.02;1.92;;;1.40;99.90;;;;;;5093678;28;20389;-65
2022/01/21 10:12:01;;;;;;;8.95;2.00;;;1.30;99.90;;;;;;5093783;28;20097;-65
2022/01/21 10:14:30;;;;;;;14.40;1.77;;;1.30;99.90;;;;;;5093763;28;20431;-65
2022/01/21 10:16:58;;;;;;;8.57;1.92;;;1.40;99.90;;;;;;5092448;28;20596;-65
2022/01/21 10:19:33;;;;;;;11.70;2.42;;;1.40;99.90;;;;;;5093554;28;20076;-65
2022/01/21 10:22:09;;;;;;;11.20;2.20;;;1.40;99.90;;;;;;5093466;28;20097;-65
2022/01/21 10:24:49;;;;;;;10.07;2.08;;;1.40;99.90;;;;;;5093302;28;20078;-65
2022/01/21 10:27:28;;;;;;;11.25;3.10;;;1.40;99.90;;;;;;5093168;28;20105;-65
2022/01/21 10:29:56;;;;;;;14.02;2.60;;;1.40;99.90;;;;;;5075644;28;20040;-65
2022/01/21 10:32:40;;;;;;;8.80;2.38;;;1.40;99.90;;;;;;5093176;28;20450;-65
2022/01/21 10:35:35;;;;;;;14.20;2.00;;;1.50;99.90;;;;;;5092697;28;20484;-65
2022/01/21 10:38:23;;;;;;;8.27;2.03;;;1.20;99.90;;;;;;5093019;28;20488;-65
2022/01/21 10:40:50;;;;;;;22.08;5.22;;;0.90;99.90;;;;;;5093149;28;20127;-65
2022/01/21 10:43:20;;;;;;;10.38;2.47;;;1.00;99.90;;;;;;5093095;28;20667;-65
2022/01/21 10:45:53;;;;;;;9.13;2.75;;;0.90;99.90;;;;;;5092614;28;20044;-65
2022/01/21 10:48:20;;;;;;;9.77;3.08;;;0.70;99.90;;;;;;5092952;28;20060;-65
2022/01/21 10:51:15;;;;;;;13.50;3.75;;;0.60;99.90;;;;;;5092924;28;20087;-65
2022/01/21 10:53:45;;;;;;;7.28;3.50;;;0.80;99.90;;;;;;5093092;28;20408;-65
2022/01/21 10:56:16;;;;;;;9.05;2.63;;;1.10;99.90;;;;;;5092729;28;20060;-65
2022/01/21 10:58:51;;;;;;;11.68;2.30;;;1.30;99.90;;;;;;5092591;28;20451;-65
2022/01/21 11:01:28;;;;;;;5.35;1.98;;;1.40;99.90;;;;;;5092809;28;20044;-65
2022/01/21 11:04:08;;;;;;;5.78;1.45;;;1.80;99.90;;;;;;5092942;28;20066;-65
2022/01/21 11:06:48;;;;;;;9.82;2.60;;;2.30;99.90;;;;;;5092124;28;20068;-65
2022/01/21 11:09:22;;;;;;;11.27;2.72;;;2.50;99.90;;;;;;5092588;28;20048;-65
2022/01/21 11:12:07;;;;;;;8.80;3.13;;;2.50;99.90;;;;;;5092530;28;20036;-65
2022/01/21 11:14:35;;;;;;;10.80;2.05;;;2.50;99.90;;;;;;5092426;28;20097;-66
2022/01/21 11:17:11;;;;;;;;;;;2.50;99.90;;;;;;5092408;28;20039;-65
2022/01/21 11:20:08;;;;;;;8.48;2.83;;;2.30;99.90;;;;;;5076251;28;19927;-65
2022/01/21 11:22:55;;;;;;;10.18;2.10;;;1.60;99.90;;;;;;5092373;28;20083;-65
2022/01/21 11:25:44;;;;;;;8.38;1.48;;;1.20;99.90;;;;;;5092128;28;20048;-65
2022/01/21 11:28:16;;;;;;;3.85;1.95;;;0.80;99.90;;;;;;5092219;28;20072;-65
2022/01/21 11:30:43;;;;;;;6.25;1.92;;;0.60;99.90;;;;;;5092158;28;20044;-65
2022/01/21 11:33:10;;;;;;;9.40;1.85;;;0.60;99.90;;;;;;5092296;28;20097;-64
2022/01/21 11:35:38;;;;;;;;;;;0.70;99.90;;;;;;5092174;28;20481;-65
2022/01/21 11:38:07;;;;;;;8.15;1.48;;;1.00;99.90;;;;;;5091926;28;19946;-64
2022/01/21 11:40:35;;;;;;;6.55;2.00;;;1.30;99.90;;;;;;5092079;28;20043;-65
2022/01/21 11:43:03;;;;;;;8.52;1.95;;;1.60;99.90;;;;;;5092143;28;20040;-65
2022/01/21 11:48:50;;;;;;;5.20;1.67;;;1.90;99.90;;;;;;5041534;28;20147;-65
2022/01/21 11:51:18;;;;;;;8.60;1.98;;;1.70;99.90;;;;;;5092001;28;20056;-65
2022/01/21 11:53:47;;;;;;;9.75;2.42;;;1.80;99.90;;;;;;5091746;28;20397;-65
2022/01/21 11:56:34;;;;;;;13.55;2.47;;;1.80;99.90;;;;;;5091403;28;20036;-66
2022/01/21 11:59:06;;;;;;;3.67;1.48;;;1.80;99.90;;;;;;5091923;28;20101;-65
2022/01/21 12:01:39;;;;;;;4.15;1.40;;;1.70;99.90;;;;;;5091859;28;20485;-65
2022/01/21 12:04:06;;;;;;;5.93;1.70;;;1.60;99.90;;;;;;5091830;28;20080;-65
2022/01/21 12:06:35;;;;;;;10.75;2.40;;;1.70;99.90;;;;;;5091386;28;20040;-66
2022/01/21 12:09:04;;;;;;;7.93;2.15;;;1.70;99.90;;;;;;5091618;28;20101;-65
2022/01/21 12:11:38;;;;;;;11.30;2.47;;;1.80;99.90;;;;;;5091631;28;20050;-66
2022/01/21 12:14:31;;;;;;;8.18;2.28;;;2.00;99.90;;;;;;5091589;28;20050;-66
2022/01/21 12:17:16;;;;;;;7.55;1.90;;;1.80;99.90;;;;;;5091066;28;20044;-65
2022/01/21 12:19:43;;;;;;;6.22;2.03;;;1.70;99.90;;;;;;5091908;28;20456;-65
2022/01/21 12:22:16;;;;;;;12.95;2.00;;;1.70;99.90;;;;;;5091581;28;20044;-65
2022/01/21 12:24:47;;;;;;;3.67;1.83;;;1.90;99.90;;;;;;5091475;28;20497;-66
2022/01/21 12:27:15;;;;;;;5.65;2.28;;;1.90;99.90;;;;;;5091103;28;20105;-66
2022/01/21 12:29:42;;;;;;;9.73;1.98;;;1.90;99.90;;;;;;5091478;28;20081;-65
2022/01/21 12:32:20;;;;;;;6.13;1.80;;;1.90;99.90;;;;;;5091530;28;20052;-65
2022/01/21 12:35:27;;;;;;;5.88;1.15;;;1.40;99.90;;;;;;5070768;28;20043;-65
2022/01/21 12:41:32;;;;;;;5.32;1.33;;;1.30;99.90;;;;;;5050726;28;20055;-65
2022/01/21 12:44:07;;;;;;;7.03;1.90;;;1.20;99.90;;;;;;5095430;28;20447;-65
2022/01/21 12:46:50;;;;;;;11.60;1.33;;;1.10;99.90;;;;;;5094958;28;20040;-65
2022/01/21 12:49:41;;;;;;;6.22;1.60;;;0.80;99.90;;;;;;5095274;28;20052;-65
2022/01/21 12:52:49;;;;;;;6.95;1.83;;;0.50;99.90;;;;;;5082098;28;20543;-65
2022/01/21 12:58:14;;;;;;;8.90;3.45;;;0.80;99.90;;;;;;5094856;28;20044;-65
2022/01/21 13:00:42;;;;;;;10.05;4.00;;;1.10;99.90;;;;;;5095076;28;20044;-65
2022/01/21 13:03:26;;;;;;;15.18;3.00;;;1.30;99.90;;;;;;5095204;28;20164;-65
2022/01/21 13:06:21;;;;;;;18.63;5.47;;;1.30;99.90;;;;;;5094595;28;20123;-65
2022/01/21 13:09:05;;;;;;;12.30;4.43;;;1.40;99.90;;;;;;5094756;28;20055;-65
2022/01/21 13:11:33;;;;;;;12.40;4.32;;;1.40;99.90;;;;;;5094921;28;20071;-65
2022/01/21 13:14:23;;;;;;;11.32;3.20;;;1.20;99.90;;;;;;5094935;28;20381;-65
2022/01/21 13:17:00;;;;;;;4.53;1.92;;;1.10;99.90;;;;;;5094457;28;20044;-65
2022/01/21 13:19:41;;;;;;;4.93;2.20;;;0.90;99.90;;;;;;5094857;28;20050;-65
2022/01/21 13:22:15;;;;;;;6.35;1.50;;;0.90;99.90;;;;;;5094719;28;20054;-65
2022/01/21 13:25:14;;;;;;;5.07;2.05;;;1.00;99.90;;;;;;5094807;28;20470;-65
2022/01/21 13:27:52;;;;;;;9.80;2.85;;;1.00;99.90;;;;;;5094394;28;20054;-65
2022/01/21 13:30:24;;;;;;;10.52;2.03;;;1.00;99.90;;;;;;5093814;28;20039;-65
2022/01/21 13:33:04;;;;;;;11.55;1.98;;;0.90;99.90;;;;;;5093259;28;20048;-65
2022/01/21 13:35:32;;;;;;;10.95;2.25;;;1.00;99.90;;;;;;5093673;28;20055;-65
2022/01/21 13:38:00;;;;;;;6.75;2.25;;;1.10;99.90;;;;;;5093635;28;20042;-65
2022/01/21 13:40:30;;;;;;;11.98;3.03;;;1.20;99.90;;;;;;5094234;28;20036;-65
2022/01/21 13:43:16;;;;;;;12.45;3.40;;;1.20;99.90;;;;;;5094434;28;20040;-65
2022/01/21 13:45:59;;;;;;;10.23;2.35;;;1.10;99.90;;;;;;5094083;28;20542;-66
2022/01/21 13:48:29;;;;;;;6.43;2.03;;;1.20;99.90;;;;;;5094110;28;20066;-65
2022/01/21 13:50:57;;;;;;;3.60;1.08;;;1.10;99.90;;;;;;5092297;28;20096;-65
2022/01/21 13:53:26;;;;;;;5.95;1.52;;;1.00;99.90;;;;;;5093424;28;20044;-66
2022/01/21 13:55:55;;;;;;;12.63;3.70;;;1.00;99.90;;;;;;5092872;28;20040;-65
2022/01/21 13:58:28;;;;;;;10.57;3.60;;;1.00;99.90;;;;;;5092978;28;20411;-65
2022/01/21 14:01:00;;;;;;;7.07;3.58;;;1.00;99.90;;;;;;5093227;28;20040;-65
2022/01/21 14:03:39;;;;;;;14.32;2.60;;;0.90;99.90;;;;;;5093300;28;20245;-65
2022/01/21 14:06:10;;;;;;;;;;;0.80;99.90;;;;;;5093431;28;20080;-65
2022/01/21 14:08:39;;;;;;;8.98;3.75;;;0.90;99.90;;;;;;5093529;28;19927;-65